Time;durP1;ratioP1;P1;durP2;ratioP2;P2;SDS_P1;SDS_P2;PMS_P1;PMS_P2;Temp;Humidity;BMP_temperature;BMP_pressure;BME280_temperature;BME280_humidity;BME280_pressure;Samples;Min_cycle;Max_cycle;Signal;HPM_P1;HPM_P2
2023/07/06 00:00:06;;;;;;;4.97;2.80;;;19.00;43.90;;;20.57;35.93;97758.44;5033608;28;20420;-43
2023/07/06 00:02:38;;;;;;;4.83;2.33;;;18.90;44.00;;;20.60;35.64;97758.00;5028242;28;20049;-43
2023/07/06 00:05:06;;;;;;;2.78;1.95;;;19.00;44.10;;;20.59;36.11;97756.38;5033957;28;20803;-41
2023/07/06 00:07:34;;;;;;;4.95;2.83;;;19.00;44.10;;;20.58;36.14;97754.66;5033181;28;20041;-45
2023/07/06 00:10:04;;;;;;;3.50;2.00;;;19.00;44.00;;;20.55;35.95;97759.69;5033646;28;20041;-40
2023/07/06 00:12:32;;;;;;;2.60;1.90;;;18.90;44.30;;;20.54;36.20;97755.34;5034102;28;20485;-45
2023/07/06 00:15:00;;;;;;;2.65;1.65;;;18.90;44.30;;;20.54;35.87;97764.28;5034103;28;20041;-44
2023/07/06 00:17:27;;;;;;;3.58;2.22;;;18.90;44.30;;;20.52;36.38;97763.66;5032552;28;20057;-42
2023/07/06 00:19:55;;;;;;;3.08;2.28;;;18.80;44.60;;;20.53;36.32;97764.50;5033249;28;20041;-45
2023/07/06 00:22:23;;;;;;;3.50;2.17;;;18.80;44.90;;;20.49;36.26;97758.72;5033403;28;20052;-42
2023/07/06 00:24:51;;;;;;;4.50;2.22;;;18.70;45.30;;;20.48;36.67;97764.34;5033416;28;20520;-40
2023/07/06 00:27:18;;;;;;;2.65;1.98;;;18.80;45.10;;;20.46;36.66;97769.97;5033277;28;20078;-40
2023/07/06 00:29:56;;;;;;;2.75;1.90;;;18.70;45.40;;;20.45;36.76;97762.88;5031764;28;20481;-41
2023/07/06 00:32:28;;;;;;;2.88;2.30;;;18.70;45.60;;;20.44;36.74;97758.56;5032043;28;20065;-43
2023/07/06 00:34:58;;;;;;;2.95;2.10;;;18.70;45.50;;;20.41;36.74;97750.88;5031842;28;20060;-44
2023/07/06 00:37:26;;;;;;;3.30;2.30;;;18.80;45.20;;;20.36;36.80;97756.94;5031222;28;20049;-44
2023/07/06 00:39:54;;;;;;;2.92;2.42;;;18.70;45.60;;;20.35;36.72;97760.69;5030459;28;20050;-41
2023/07/06 00:42:22;;;;;;;6.22;2.08;;;18.60;45.60;;;20.30;36.68;97757.84;5033050;28;20053;-43
2023/07/06 00:44:55;;;;;;;3.97;2.00;;;18.60;45.80;;;20.25;36.72;97758.47;5031566;28;20153;-42
2023/07/06 00:47:40;;;;;;;4.82;2.08;;;18.60;45.80;;;20.20;36.86;97765.59;5032937;28;20515;-43
2023/07/06 00:50:15;;;;;;;3.60;2.17;;;18.50;46.30;;;20.19;37.23;97761.25;5031298;28;20045;-43
2023/07/06 00:52:51;;;;;;;4.10;1.90;;;18.50;46.60;;;20.17;37.33;97757.94;5024815;28;20052;-42
2023/07/06 00:55:25;;;;;;;3.35;1.77;;;18.40;47.10;;;20.14;37.26;97759.22;5032857;28;20056;-42
2023/07/06 00:58:00;;;;;;;3.65;2.22;;;18.30;46.90;;;20.14;37.27;97751.13;5031587;28;20049;-43
2023/07/06 01:00:28;;;;;;;2.97;2.05;;;18.40;46.50;;;20.14;37.10;97758.38;5032327;28;20394;-43
2023/07/06 01:03:00;;;;;;;3.38;2.10;;;18.40;46.40;;;20.15;37.04;97758.16;5032604;28;20041;-40
2023/07/06 01:05:30;;;;;;;3.15;1.92;;;18.50;46.40;;;20.18;37.06;97752.31;5031604;28;20072;-39
2023/07/06 01:08:07;;;;;;;3.17;2.00;;;18.50;46.20;;;20.19;37.33;97756.66;5031375;28;20045;-43
2023/07/06 01:10:38;;;;;;;4.22;2.08;;;18.40;46.20;;;20.18;37.09;97755.03;5030299;28;20045;-41
2023/07/06 01:13:07;;;;;;;3.40;1.80;;;18.40;46.20;;;20.15;37.39;97751.94;5031633;28;20049;-43
2023/07/06 01:16:15;;;;;;;3.60;2.75;;;18.40;46.50;;;20.11;37.61;97748.03;5031246;28;20492;-41
2023/07/06 01:19:12;;;;;;;3.28;2.00;;;18.40;47.40;;;20.11;37.58;97745.31;5023824;28;20045;-45
2023/07/06 01:21:51;;;;;;;3.10;1.90;;;18.30;47.60;;;20.01;37.51;97749.31;5009742;28;20046;-42
2023/07/06 01:25:09;;;;;;;3.80;2.20;;;18.10;48.00;;;19.95;37.70;97741.25;5032281;28;20053;-41
2023/07/06 01:28:11;;;;;;;3.22;1.88;;;18.10;47.80;;;19.95;37.41;97742.09;5018684;28;20515;-41
2023/07/06 01:31:17;;;;;;;4.32;2.20;;;18.10;47.60;;;19.87;37.73;97745.03;5016377;28;20520;-41
2023/07/06 01:34:20;;;;;;;4.07;2.00;;;18.10;47.40;;;19.86;37.44;97738.81;5024942;28;20056;-41
2023/07/06 01:37:18;;;;;;;4.75;2.65;;;18.10;47.20;;;19.86;37.79;97738.81;5024360;28;20057;-43
2023/07/06 01:39:47;;;;;;;3.40;1.98;;;18.20;47.10;;;19.83;37.70;97741.97;5023769;28;20497;-43
2023/07/06 01:42:27;;;;;;;3.08;2.08;;;18.10;47.30;;;19.81;37.87;97741.38;5031446;28;20037;-42
2023/07/06 01:45:00;;;;;;;3.10;2.00;;;18.00;47.40;;;19.81;37.74;97737.81;5032242;28;20045;-44
2023/07/06 01:47:29;;;;;;;3.05;2.05;;;18.00;48.00;;;19.81;37.69;97743.22;5030395;28;20056;-47
2023/07/06 01:50:01;;;;;;;3.15;1.90;;;18.10;47.70;;;19.77;38.20;97733.91;5030245;28;20044;-41
2023/07/06 01:52:57;;;;;;;3.03;1.90;;;18.00;47.80;;;19.77;37.78;97728.50;5030212;28;20060;-44
2023/07/06 01:55:47;;;;;;;2.75;2.20;;;18.10;48.00;;;19.75;37.91;97744.91;5030792;28;20060;-42
2023/07/06 01:58:29;;;;;;;2.67;2.10;;;18.00;48.20;;;19.75;37.97;97741.41;5030552;28;20428;-42
2023/07/06 02:01:07;;;;;;;3.78;2.03;;;18.00;47.70;;;19.73;38.00;97730.81;5014529;28;20052;-44
2023/07/06 02:03:38;;;;;;;3.42;1.85;;;18.00;47.70;;;19.71;38.22;97732.03;5029592;28;20430;-45
2023/07/06 02:06:10;;;;;;;3.38;2.38;;;17.90;47.90;;;19.68;38.04;97739.53;5030135;28;20041;-40
2023/07/06 02:08:41;;;;;;;5.20;2.20;;;17.90;47.90;;;19.70;37.96;97730.38;5013876;28;20046;-41
2023/07/06 02:11:13;;;;;;;2.85;2.08;;;17.90;47.70;;;19.68;38.10;97736.84;5031383;28;20056;-42
2023/07/06 02:13:41;;;;;;;2.60;2.00;;;17.90;48.00;;;19.68;37.91;97736.84;5030047;28;20527;-41
2023/07/06 02:16:09;;;;;;;4.60;2.30;;;17.90;47.90;;;19.67;37.89;97729.75;5030009;28;20053;-41
2023/07/06 02:18:37;;;;;;;4.00;2.47;;;17.80;47.80;;;19.66;38.04;97738.13;5029670;28;20269;-41
2023/07/06 02:21:05;;;;;;;2.55;1.83;;;17.80;47.90;;;19.66;38.08;97736.22;5031095;28;20049;-42
2023/07/06 02:23:32;;;;;;;2.30;1.90;;;17.80;47.80;;;19.63;38.11;97725.84;5031297;28;20042;-41
2023/07/06 02:26:01;;;;;;;4.30;2.13;;;17.80;47.80;;;19.62;38.20;97739.59;5031706;28;20037;-44
2023/07/06 02:28:30;;;;;;;2.33;1.70;;;17.80;48.20;;;19.60;38.20;97741.66;5031608;28;20060;-39
2023/07/06 02:30:59;;;;;;;2.60;1.70;;;17.70;48.20;;;19.62;38.29;97736.91;5029579;28;20497;-41
2023/07/06 02:33:28;;;;;;;3.45;2.55;;;17.80;48.00;;;19.63;38.13;97733.94;5031279;28;20415;-44
2023/07/06 02:35:56;;;;;;;2.00;1.58;;;17.80;48.10;;;19.63;38.19;97733.94;5029583;28;20041;-42
2023/07/06 02:38:24;;;;;;;3.70;1.85;;;17.80;47.70;;;19.59;38.09;97735.44;5031093;28;20401;-43
2023/07/06 02:40:52;;;;;;;5.78;2.15;;;17.70;47.90;;;19.57;38.15;97734.81;5030516;28;20060;-57
2023/07/06 02:43:19;;;;;;;3.67;2.15;;;17.70;47.80;;;19.53;38.39;97738.19;5031895;28;20053;-40
2023/07/06 02:45:48;;;;;;;2.25;1.73;;;17.70;48.20;;;19.46;38.37;97730.97;5023118;28;20034;-41
2023/07/06 02:48:17;;;;;;;2.88;1.88;;;17.60;48.50;;;19.40;38.61;97736.38;5029516;28;20049;-41
2023/07/06 02:50:49;;;;;;;3.20;2.05;;;17.50;48.90;;;19.31;38.83;97733.09;5030718;28;20041;-40
2023/07/06 02:53:18;;;;;;;2.47;1.85;;;17.40;49.50;;;19.28;39.07;97742.44;5029943;28;20061;-42
2023/07/06 02:55:47;;;;;;;3.67;1.92;;;17.40;49.50;;;19.22;39.18;97735.22;5022859;28;20049;-43
2023/07/06 02:58:16;;;;;;;3.55;1.98;;;17.30;50.30;;;19.16;39.42;97736.06;5030795;28;20076;-43
2023/07/06 03:00:47;;;;;;;4.95;1.80;;;17.20;50.30;;;19.17;39.35;97737.72;5029494;28;20053;-43
2023/07/06 03:03:14;;;;;;;3.90;1.92;;;17.20;50.20;;;19.14;39.70;97738.16;5029752;28;20045;-40
2023/07/06 03:05:46;;;;;;;3.28;1.80;;;17.20;51.00;;;19.14;39.79;97726.53;5029510;28;20052;-44
2023/07/06 03:08:15;;;;;;;4.55;1.83;;;17.10;51.40;;;19.10;39.99;97728.84;5013176;28;20041;-41
2023/07/06 03:10:46;;;;;;;4.32;2.20;;;17.10;51.50;;;19.06;40.01;97730.31;5021635;28;20046;-42
2023/07/06 03:13:15;;;;;;;2.97;1.75;;;17.10;51.80;;;19.03;40.10;97728.84;5030299;28;20060;-42
2023/07/06 03:15:43;;;;;;;3.60;2.08;;;17.10;51.60;;;19.01;40.13;97735.50;5034413;28;20065;-42
2023/07/06 03:18:12;;;;;;;5.80;2.83;;;17.00;51.60;;;18.96;40.21;97735.31;5033463;28;20064;-42
2023/07/06 03:20:40;;;;;;;3.40;2.05;;;17.00;51.70;;;18.91;40.37;97730.56;5034196;28;20052;-44
2023/07/06 03:23:08;;;;;;;3.15;2.10;;;16.90;52.00;;;18.86;40.28;97731.22;5033291;28;20053;-40
2023/07/06 03:25:36;;;;;;;4.65;2.00;;;16.90;52.00;;;18.88;40.38;97736.38;5033552;28;20056;-40
2023/07/06 03:28:03;;;;;;;2.92;1.88;;;16.90;51.90;;;18.86;40.51;97735.75;5033072;28;20056;-41
2023/07/06 03:30:31;;;;;;;2.60;1.95;;;16.90;52.40;;;18.79;40.55;97727.66;5034037;28;20046;-40
2023/07/06 03:32:59;;;;;;;3.72;2.42;;;16.80;52.40;;;18.77;40.46;97724.34;5034448;28;20520;-40
2023/07/06 03:35:28;;;;;;;5.35;2.00;;;16.80;52.20;;;18.75;40.64;97726.44;5032762;28;20065;-40
2023/07/06 03:37:58;;;;;;;2.80;1.92;;;16.80;52.40;;;18.73;40.64;97723.13;5034133;28;20041;-40
2023/07/06 03:40:29;;;;;;;3.15;2.00;;;16.80;52.30;;;18.70;40.16;97729.75;5029916;28;20056;-42
2023/07/06 03:42:57;;;;;;;3.22;1.55;;;16.80;51.50;;;18.64;40.32;97730.59;5034225;28;20042;-41
2023/07/06 03:45:25;;;;;;;3.92;2.08;;;16.70;51.40;;;18.63;40.36;97737.03;5032573;28;20045;-40
2023/07/06 03:47:53;;;;;;;4.25;2.30;;;16.80;51.10;;;18.65;40.23;97728.72;5024813;28;20049;-42
2023/07/06 03:50:20;;;;;;;2.95;2.10;;;16.70;51.10;;;18.65;40.37;97731.41;5032880;28;20111;-42
2023/07/06 03:52:48;;;;;;;4.10;1.90;;;16.80;51.00;;;18.65;40.14;97731.41;5034027;28;20041;-41
2023/07/06 03:55:24;;;;;;;2.58;1.73;;;16.80;50.90;;;18.64;40.08;97735.16;5033979;28;20500;-40
2023/07/06 03:57:52;;;;;;;2.88;2.13;;;16.80;51.10;;;18.60;40.19;97731.22;5033747;28;20417;-44
2023/07/06 04:00:24;;;;;;;3.50;1.75;;;16.70;50.90;;;18.60;40.36;97736.63;5032363;28;20053;-40
2023/07/06 04:02:54;;;;;;;3.88;2.00;;;16.70;51.90;;;18.60;40.20;97729.34;5027135;28;20045;-40
2023/07/06 04:05:31;;;;;;;3.60;1.98;;;16.80;51.20;;;18.57;40.56;97729.78;5033679;28;20505;-41
2023/07/06 04:08:03;;;;;;;3.50;2.42;;;16.80;51.60;;;18.57;40.63;97727.09;5033598;28;20037;-42
2023/07/06 04:10:33;;;;;;;2.72;1.98;;;16.80;51.60;;;18.57;40.63;97732.50;5032942;28;20408;-40
2023/07/06 04:13:01;;;;;;;2.22;1.63;;;16.80;51.80;;;18.54;40.80;97730.19;5033651;28;20539;-40
2023/07/06 04:15:30;;;;;;;4.30;2.22;;;16.70;51.80;;;18.52;40.88;97729.59;5033583;28;20417;-40
2023/07/06 04:17:58;;;;;;;4.13;2.47;;;16.70;52.30;;;18.53;41.04;97730.41;5033241;28;20061;-41
2023/07/06 04:20:29;;;;;;;4.22;2.08;;;16.70;52.40;;;18.55;41.14;97742.63;5033110;28;20045;-44
2023/07/06 04:22:58;;;;;;;4.15;2.40;;;16.70;52.50;;;18.55;41.25;97741.81;5033306;28;20045;-42
2023/07/06 04:25:31;;;;;;;6.07;2.80;;;16.70;52.70;;;18.52;41.56;97744.94;5032607;28;20049;-40
2023/07/06 04:28:07;;;;;;;3.28;1.92;;;16.70;53.40;;;18.53;41.48;97742.00;5025681;28;20057;-42
2023/07/06 04:30:41;;;;;;;2.70;2.20;;;16.70;53.20;;;18.53;41.55;97744.69;5015418;28;20061;-45
2023/07/06 04:33:17;;;;;;;3.67;1.98;;;16.70;53.10;;;18.54;41.46;97748.25;5032352;28;20065;-45
2023/07/06 04:35:51;;;;;;;3.70;2.15;;;16.70;53.40;;;18.55;41.44;97742.63;5033115;28;20421;-41
2023/07/06 04:38:21;;;;;;;3.30;1.95;;;16.70;52.90;;;18.55;41.43;97742.63;5032967;28;20044;-42
2023/07/06 04:40:51;;;;;;;3.28;2.25;;;16.80;52.60;;;18.55;41.47;97748.03;5033278;28;20049;-41
2023/07/06 04:43:19;;;;;;;2.72;2.03;;;16.80;52.70;;;18.56;41.58;97741.59;5031785;28;20115;-40
2023/07/06 04:45:46;;;;;;;3.13;2.30;;;16.80;53.00;;;18.58;41.57;97749.47;5030837;28;20053;-40
2023/07/06 04:48:16;;;;;;;3.85;1.90;;;16.80;52.50;;;18.61;41.54;97755.28;5033297;28;20045;-41
2023/07/06 04:50:44;;;;;;;3.38;2.15;;;16.90;52.60;;;18.61;41.83;97754.44;5032243;28;20421;-40
2023/07/06 04:53:12;;;;;;;9.45;2.83;;;16.90;52.80;;;18.60;42.14;97753.63;5032866;28;20045;-42
2023/07/06 04:55:39;;;;;;;6.40;2.45;;;17.00;53.20;;;18.62;42.52;97756.94;5032701;28;20053;-42
2023/07/06 04:58:08;;;;;;;3.22;2.20;;;17.10;53.70;;;18.63;42.60;97764.00;5032827;28;20041;-40
2023/07/06 05:00:39;;;;;;;3.53;3.10;;;17.10;54.10;;;18.62;42.46;97765.03;5032409;28;20048;-44
2023/07/06 05:03:08;;;;;;;4.63;2.05;;;17.00;53.90;;;18.62;42.63;97764.19;5032447;28;20050;-43
2023/07/06 05:05:43;;;;;;;4.63;2.05;;;16.90;54.60;;;18.63;42.66;97757.75;5031230;28;20393;-40
2023/07/06 05:08:15;;;;;;;3.40;2.08;;;16.90;54.20;;;18.66;42.56;97760.03;5032391;28;20048;-43
2023/07/06 05:10:48;;;;;;;4.47;2.40;;;16.90;54.30;;;18.67;42.58;97756.31;5032163;28;20068;-44
2023/07/06 05:13:16;;;;;;;3.00;1.75;;;16.90;54.10;;;18.70;42.90;97764.78;5032263;28;20045;-43
2023/07/06 05:15:44;;;;;;;3.75;1.92;;;17.00;54.70;;;18.75;42.97;97766.06;5032300;28;20520;-40
2023/07/06 05:18:11;;;;;;;3.85;2.25;;;17.00;54.90;;;18.78;42.76;97771.00;5032388;28;20580;-42
2023/07/06 05:20:40;;;;;;;4.88;2.20;;;17.10;54.40;;;18.81;42.83;97771.44;5030358;28;20056;-41
2023/07/06 05:23:09;;;;;;;4.95;2.42;;;17.10;54.50;;;18.85;42.77;97779.97;5032217;28;20493;-42
2023/07/06 05:25:37;;;;;;;2.60;1.75;;;17.10;54.40;;;18.86;42.53;97771.66;5031909;28;20048;-41
2023/07/06 05:28:04;;;;;;;3.08;1.90;;;17.20;53.70;;;18.89;41.84;97775.78;5032094;28;20048;-41
2023/07/06 05:30:32;;;;;;;5.20;2.00;;;17.20;52.30;;;18.87;41.79;97776.00;5031605;28;20045;-44
2023/07/06 05:33:00;;;;;;;2.72;1.77;;;17.30;52.20;;;18.91;41.58;97776.41;5032008;28;20034;-43
2023/07/06 05:35:27;;;;;;;4.05;1.80;;;17.30;51.90;;;18.92;41.38;97779.94;5032077;28;20056;-43
2023/07/06 05:37:55;;;;;;;4.97;1.85;;;17.30;51.40;;;18.98;41.43;97776.38;5030760;28;20137;-43
2023/07/06 05:40:23;;;;;;;2.88;1.77;;;17.40;51.40;;;19.05;41.10;97788.00;5031527;28;20416;-43
2023/07/06 05:42:50;;;;;;;3.42;3.05;;;17.50;50.90;;;19.06;40.68;97778.88;5031845;28;20052;-45
2023/07/06 05:45:18;;;;;;;2.25;1.50;;;17.50;50.10;;;19.07;40.54;97786.72;5030926;28;20037;-42
2023/07/06 05:47:47;;;;;;;2.88;1.55;;;17.50;49.70;;;19.07;40.95;97786.72;5031599;28;20041;-45
2023/07/06 05:50:14;;;;;;;3.67;1.90;;;17.50;50.90;;;19.10;40.92;97793.59;5029938;28;20273;-43
2023/07/06 05:52:42;;;;;;;3.60;2.17;;;17.50;50.70;;;19.15;41.60;97791.06;5031578;28;20056;-43
2023/07/06 05:55:11;;;;;;;2.80;1.95;;;17.60;51.70;;;19.21;42.10;97797.47;5031689;28;20056;-45
2023/07/06 05:57:38;;;;;;;3.55;2.15;;;17.70;52.70;;;19.25;42.37;97798.72;5031433;28;20048;-40
2023/07/06 06:00:09;;;;;;;3.63;3.00;;;17.70;52.90;;;19.28;42.53;97795.59;5031288;28;20057;-41
2023/07/06 06:02:39;;;;;;;4.05;2.33;;;17.80;53.30;;;19.34;42.87;97807.41;5031745;28;20041;-44
2023/07/06 06:05:07;;;;;;;7.50;2.70;;;17.90;54.10;;;19.39;43.19;97807.63;5023489;28;20041;-42
2023/07/06 06:07:35;;;;;;;8.77;3.33;;;17.90;54.20;;;19.40;43.19;97811.97;5031748;28;20045;-42
2023/07/06 06:10:03;;;;;;;10.88;2.42;;;18.00;54.20;;;19.40;43.40;97811.97;5031009;28;20041;-43
2023/07/06 06:12:32;;;;;;;10.70;3.67;;;18.00;54.10;;;19.43;43.55;97815.06;5031504;28;20413;-44
2023/07/06 06:15:00;;;;;;;9.75;3.13;;;18.10;54.30;;;19.46;43.37;97819.19;5031258;28;20046;-41
2023/07/06 06:17:28;;;;;;;13.23;3.00;;;18.10;54.40;;;19.50;43.43;97820.41;5030862;28;20082;-40
2023/07/06 06:19:56;;;;;;;8.68;3.10;;;18.10;54.40;;;19.53;43.38;97819.19;5030876;28;20057;-44
2023/07/06 06:22:24;;;;;;;7.55;2.85;;;18.10;54.30;;;19.57;43.49;97817.72;5031545;28;20060;-40
2023/07/06 06:24:52;;;;;;;4.43;2.50;;;18.10;54.10;;;19.62;43.02;97820.59;5030910;28;20049;-41
2023/07/06 06:27:20;;;;;;;7.75;2.42;;;18.20;53.70;;;19.63;42.85;97822.25;5031203;28;20044;-43
2023/07/06 06:29:48;;;;;;;5.85;2.22;;;18.20;53.70;;;19.67;42.85;97821.59;5030638;28;20060;-44
2023/07/06 06:32:16;;;;;;;5.55;2.67;;;18.20;53.60;;;19.72;42.73;97823.69;5031008;28;20068;-43
2023/07/06 06:34:44;;;;;;;4.75;2.60;;;18.30;53.30;;;19.76;42.43;97819.50;5030939;28;20045;-44
2023/07/06 06:37:12;;;;;;;5.82;2.17;;;18.20;52.70;;;19.78;42.21;97817.44;5031266;28;20041;-42
2023/07/06 06:39:40;;;;;;;4.68;2.22;;;18.20;52.50;;;19.81;41.95;97813.47;5028960;28;20052;-42
2023/07/06 06:42:08;;;;;;;7.15;2.30;;;18.30;52.20;;;19.84;41.54;97816.56;5028156;28;20057;-45
2023/07/06 06:44:41;;;;;;;3.90;2.17;;;18.30;51.20;;;19.87;41.38;97818.00;5031067;28;20401;-44
2023/07/06 06:47:09;;;;;;;4.32;1.52;;;18.40;50.80;;;19.92;41.05;97817.34;5023037;28;20045;-42
2023/07/06 06:49:37;;;;;;;2.60;1.90;;;18.40;49.90;;;19.96;40.98;97813.16;5033852;28;20034;-40
2023/07/06 06:52:05;;;;;;;3.85;1.70;;;18.50;50.10;;;20.00;40.82;97811.69;5034840;28;20041;-42
2023/07/06 06:54:34;;;;;;;3.95;1.83;;;18.60;49.70;;;20.00;40.44;97820.63;5035042;28;20049;-40
2023/07/06 06:57:04;;;;;;;4.90;2.10;;;18.60;49.60;;;19.98;40.22;97813.78;5034794;28;20416;-42
2023/07/06 06:59:32;;;;;;;3.17;1.92;;;18.60;48.80;;;19.96;40.00;97822.09;5017188;28;20056;-43
2023/07/06 07:02:02;;;;;;;3.92;1.98;;;18.60;48.50;;;19.96;40.02;97823.97;5034777;28;20049;-42
2023/07/06 07:04:31;;;;;;;3.88;2.38;;;18.60;47.90;;;19.96;39.96;97818.56;5034611;28;20045;-44
2023/07/06 07:07:03;;;;;;;3.03;1.60;;;18.50;48.40;;;19.97;39.91;97820.25;5034651;28;20505;-46
2023/07/06 07:09:32;;;;;;;3.22;2.10;;;18.60;48.80;;;20.02;39.91;97818.53;5034245;28;20045;-43
2023/07/06 07:12:00;;;;;;;4.82;1.77;;;18.70;48.80;;;20.09;40.17;97818.50;5016700;28;20049;-43
2023/07/06 07:14:30;;;;;;;3.85;2.10;;;18.70;48.60;;;20.11;39.75;97821.81;5034739;28;20053;-45
2023/07/06 07:16:57;;;;;;;5.07;1.92;;;18.80;47.70;;;20.09;39.61;97820.38;5034326;28;20060;-46
2023/07/06 07:19:28;;;;;;;3.58;1.70;;;18.70;47.90;;;20.11;39.74;97812.88;5034243;28;20041;-44
2023/07/06 07:22:00;;;;;;;2.55;1.90;;;18.70;48.30;;;20.15;39.64;97823.03;5034488;28;20492;-46
2023/07/06 07:24:32;;;;;;;3.65;2.08;;;18.80;48.30;;;20.20;39.58;97817.81;5034561;28;20041;-44
2023/07/06 07:27:00;;;;;;;4.32;2.30;;;18.80;48.10;;;20.23;39.57;97816.53;5034187;28;20042;-44
2023/07/06 07:29:28;;;;;;;4.78;2.00;;;18.90;47.70;;;20.27;39.66;97823.16;5031810;28;20041;-42
2023/07/06 07:31:56;;;;;;;3.28;2.13;;;19.00;47.10;;;20.30;39.41;97820.03;5034281;28;20512;-42
2023/07/06 07:34:27;;;;;;;4.15;1.95;;;19.00;47.00;;;20.35;39.18;97822.88;5034620;28;20049;-42
2023/07/06 07:36:54;;;;;;;6.35;2.05;;;19.00;47.20;;;20.41;39.52;97827.44;5034158;28;20412;-45
2023/07/06 07:39:23;;;;;;;5.68;2.22;;;19.10;47.20;;;20.45;39.07;97827.78;5033802;28;20045;-43
2023/07/06 07:41:52;;;;;;;5.53;2.25;;;19.20;46.80;;;20.50;38.57;97832.56;5033465;28;20045;-46
2023/07/06 07:44:21;;;;;;;4.15;2.35;;;19.20;46.40;;;20.53;38.58;97816.72;5033980;28;20493;-42
2023/07/06 07:46:49;;;;;;;3.85;2.03;;;19.20;46.00;;;20.57;38.54;97822.50;5033003;28;20048;-45
2023/07/06 07:49:17;;;;;;;2.97;1.83;;;19.30;46.20;;;20.60;38.79;97820.19;5033337;28;20042;-47
2023/07/06 07:51:46;;;;;;;3.90;2.00;;;19.30;46.50;;;20.64;38.35;97815.19;5033933;28;20076;-44
2023/07/06 07:54:13;;;;;;;6.38;2.45;;;19.40;46.10;;;20.67;38.20;97813.94;5033822;28;20052;-42
2023/07/06 07:56:42;;;;;;;3.03;2.20;;;19.40;45.80;;;20.74;38.61;97826.31;5033780;28;20045;-42
2023/07/06 07:59:10;;;;;;;4.53;2.05;;;19.50;46.00;;;20.83;38.50;97810.66;5033443;28;20045;-42
2023/07/06 08:01:38;;;;;;;4.40;1.88;;;19.60;45.90;;;20.91;38.48;97818.47;5032701;28;20057;-44
2023/07/06 08:04:06;;;;;;;2.92;1.80;;;19.70;45.90;;;20.97;38.07;97824.88;5033629;28;20052;-45
2023/07/06 08:06:34;;;;;;;5.30;2.28;;;19.80;45.60;;;21.03;38.02;97816.69;5018187;28;20048;-44
2023/07/06 08:09:03;;;;;;;2.58;1.67;;;19.90;45.50;;;21.09;37.89;97814.94;5028084;28;20045;-45
2023/07/06 08:11:31;;;;;;;3.92;1.90;;;19.90;45.20;;;21.13;37.73;97815.34;5028139;28;20065;-44
2023/07/06 08:13:59;;;;;;;3.80;2.20;;;20.00;44.80;;;21.17;37.50;97814.69;5028670;28;20409;-43
2023/07/06 08:16:28;;;;;;;2.70;1.80;;;20.00;44.80;;;21.21;37.87;97821.28;5025081;28;20064;-42
2023/07/06 08:18:56;;;;;;;3.33;1.80;;;20.00;44.70;;;21.20;37.67;97814.22;5027802;28;20049;-42
2023/07/06 08:21:44;;;;;;;3.15;2.05;;;20.10;44.30;;;21.24;37.50;97815.41;5028314;28;20056;-46
2023/07/06 08:24:31;;;;;;;3.78;2.03;;;20.10;43.90;;;21.22;36.87;97820.22;5040358;28;20154;-43
2023/07/06 08:26:59;;;;;;;3.28;2.20;;;20.10;43.50;;;21.18;37.51;97816.31;5027655;28;20501;-44
2023/07/06 08:29:27;;;;;;;2.83;2.00;;;20.10;44.10;;;21.28;37.09;97817.69;5027766;28;20069;-45
2023/07/06 08:31:56;;;;;;;2.90;1.90;;;20.20;43.70;;;21.31;37.24;97815.34;5028897;28;20064;-45
2023/07/06 08:34:26;;;;;;;6.18;2.63;;;20.20;44.30;;;;;;5027219;28;20045;-45
2023/07/06 08:36:54;;;;;;;3.58;2.00;;;20.20;43.40;;;21.37;37.13;97819.03;5027757;28;20053;-45
2023/07/06 08:39:22;;;;;;;3.05;2.25;;;20.20;43.30;;;21.41;36.98;97812.09;5026191;28;20041;-47
2023/07/06 08:41:52;;;;;;;3.40;2.22;;;20.30;43.60;;;21.46;36.80;97822.28;5023934;28;20041;-45
2023/07/06 08:44:23;;;;;;;1.92;1.70;;;20.30;44.50;;;21.45;36.83;97821.47;5023857;28;20497;-44
2023/07/06 08:46:54;;;;;;;3.00;2.17;;;20.30;43.30;;;21.40;36.56;97814.00;5026771;28;20049;-45
2023/07/06 08:49:32;;;;;;;5.70;2.50;;;20.20;43.80;;;21.36;36.77;97809.25;5021659;28;20041;-45
2023/07/06 08:52:05;;;;;;;3.83;2.17;;;20.20;42.60;;;21.40;36.45;97810.44;5027838;28;20480;-45
2023/07/06 08:54:39;;;;;;;3.88;2.15;;;20.20;42.90;;;21.46;36.70;97811.44;5024569;28;20420;-44
2023/07/06 08:57:21;;;;;;;6.63;2.45;;;20.20;43.40;;;21.51;36.17;97809.72;5027621;28;20053;-47
2023/07/06 08:59:51;;;;;;;4.88;2.10;;;20.30;42.20;;;21.53;36.11;97801.38;5031280;28;20045;-42
2023/07/06 09:02:29;;;;;;;4.00;2.47;;;20.30;43.10;;;21.57;36.09;97806.09;5032022;28;20061;-44
2023/07/06 09:05:06;;;;;;;4.07;2.33;;;20.40;42.50;;;21.65;36.46;97812.25;5028483;28;20053;-47
2023/07/06 09:07:39;;;;;;;3.22;2.15;;;20.40;42.70;;;21.65;35.82;97801.44;5032213;28;20041;-46
2023/07/06 09:10:26;;;;;;;3.30;1.80;;;20.50;42.00;;;21.73;35.99;97807.38;5027985;28;20489;-46
2023/07/06 09:13:11;;;;;;;4.15;2.00;;;20.60;41.80;;;21.81;35.91;97807.03;5032506;28;20045;-44
2023/07/06 09:15:40;;;;;;;5.65;2.13;;;20.60;41.90;;;21.87;35.42;97801.75;5026636;28;20049;-47
2023/07/06 09:18:15;;;;;;;3.42;2.35;;;20.70;41.60;;;21.93;35.07;97792.72;5032159;28;20053;-43
2023/07/06 09:20:44;;;;;;;3.17;2.42;;;20.80;40.60;;;21.96;35.35;97795.75;5031451;28;20416;-46
2023/07/06 09:23:15;;;;;;;3.17;2.22;;;20.90;41.00;;;21.88;34.93;97798.81;5031371;28;20420;-46
2023/07/06 09:25:47;;;;;;;4.50;2.22;;;21.00;39.70;;;22.04;35.07;97794.59;5031506;28;20052;-45
2023/07/06 09:28:24;;;;;;;2.83;2.10;;;21.00;40.10;;;22.19;34.68;97796.91;5032233;28;20053;-46
2023/07/06 09:31:18;;;;;;;4.05;2.63;;;21.20;38.20;;;22.32;34.41;97793.19;5031851;28;20049;-46
2023/07/06 09:33:49;;;;;;;2.75;1.73;;;21.30;37.40;;;22.47;34.29;97784.59;5026615;28;20068;-47
2023/07/06 09:36:25;;;;;;;6.70;2.53;;;21.50;38.90;;;22.59;34.29;97788.16;5031951;28;20052;-44
2023/07/06 09:38:52;;;;;;;4.45;1.77;;;21.60;39.00;;;22.69;33.99;97801.97;5031943;28;20045;-47
2023/07/06 09:41:25;;;;;;;3.60;2.20;;;21.80;39.10;;;22.77;33.66;97798.88;5028779;28;20049;-48
2023/07/06 09:44:04;;;;;;;4.78;2.42;;;21.80;38.00;;;22.79;33.72;97798.66;5031226;28;20496;-46
2023/07/06 09:46:36;;;;;;;6.82;2.42;;;21.80;37.80;;;22.90;33.75;97799.72;5023391;28;20052;-44
2023/07/06 09:49:17;;;;;;;3.28;2.20;;;21.90;38.50;;;22.99;33.78;97809.13;5030566;28;20041;-43
2023/07/06 09:51:58;;;;;;;4.18;2.03;;;22.00;37.60;;;23.04;33.79;97809.28;5031527;28;20040;-43
2023/07/06 09:54:40;;;;;;;3.85;2.40;;;22.00;38.30;;;23.07;33.46;97803.41;5030554;28;20052;-48
2023/07/06 09:57:17;;;;;;;4.78;2.55;;;22.00;38.40;;;23.07;33.51;97800.69;5030254;28;20049;-50
2023/07/06 09:59:49;;;;;;;3.58;2.28;;;22.00;38.40;;;23.11;33.39;97807.28;5031106;28;20412;-44
2023/07/06 10:02:39;;;;;;;4.45;2.10;;;22.00;37.90;;;23.05;33.36;97802.81;5030256;28;20053;-46
2023/07/06 10:05:42;;;;;;;3.42;2.13;;;22.00;37.40;;;23.07;33.17;97806.13;5031456;28;20420;-46
2023/07/06 10:08:20;;;;;;;3.70;2.53;;;22.00;37.80;;;23.15;33.26;97807.66;5029599;28;20056;-47
2023/07/06 10:11:22;;;;;;;4.20;2.50;;;22.00;38.10;;;23.24;33.18;97810.81;5029913;28;20492;-44
2023/07/06 10:14:04;;;;;;;5.75;2.13;;;22.20;37.50;;;23.37;32.97;97802.41;5025014;28;20052;-44
2023/07/06 10:17:08;;;;;;;3.72;2.30;;;22.40;38.20;;;23.49;33.25;97813.22;5030412;28;20033;-43
2023/07/06 10:20:21;;;;;;;2.80;2.20;;;22.60;37.40;;;23.52;32.60;97810.88;5022582;28;20497;-43
2023/07/06 10:23:32;;;;;;;3.72;2.40;;;22.60;36.00;;;23.66;32.54;97805.97;5025120;28;20130;-44
2023/07/06 10:26:41;;;;;;;4.63;2.17;;;22.70;36.90;;;23.69;32.62;97810.94;5025863;28;20056;-48
2023/07/06 10:29:16;;;;;;;3.38;2.30;;;22.80;36.10;;;23.77;32.37;97815.16;4989075;28;20054;-48
2023/07/06 10:31:53;;;;;;;4.53;2.10;;;22.80;36.90;;;23.69;32.31;97810.94;5027014;28;20057;-46
2023/07/06 10:35:12;;;;;;;4.05;2.30;;;22.60;36.90;;;23.65;32.47;97808.94;5030101;28;20048;-44
2023/07/06 10:37:42;;;;;;;4.38;3.03;;;22.50;36.60;;;23.66;32.45;97810.59;5022863;28;20065;-45
2023/07/06 10:40:25;;;;;;;3.60;2.10;;;22.60;37.10;;;23.65;32.25;97812.50;5029544;28;20052;-43
2023/07/06 10:43:14;;;;;;;3.35;2.38;;;22.70;36.70;;;23.63;32.07;97809.16;5031228;28;20056;-48